Leyburn, United Kingdom
Current Conditions -  °F | °C
As of 10:50 AM on Wednesday 26 Nov 2014 (Local Time) from EGXE Reporting Station
Light Rain Light Rain  
Wind Chill: 43°   Ceiling: 3000
Heat Index: 43°   Visibility: 2.5mi
Dew Point: 43°   Wind: 3mph
Humidity: 100%   Direction: 10°N
Pressure: 29.94"   Gusts: NA
Location:  54.31°N, 1.83°W
Report Text: EGXE 261050Z 01003KT 4000 -RA FEW018 BKN030 OVC055 06/06 Q1014 GRN TEMPO 3000 DZ SCT012 YLO1
Loading
Personal Weather Stations






























Interactive Weather Map New forecast layout! Learn more

10-Day Weather Forecast

Advertisements
Track Severe Weather on mobile